Time;durP1;ratioP1;P1;durP2;ratioP2;P2;SDS_P1;SDS_P2;PMS_P1;PMS_P2;Temp;Humidity;BMP_temperature;BMP_pressure;BME280_temperature;BME280_humidity;BME280_pressure;Samples;Min_cycle;Max_cycle;Signal;HPM_P1;HPM_P2
2023/01/30 00:00:06;;;;;;;0.57;0.57;;;-0.40;99.90;;;;;;5019658;28;20444;-66
2023/01/30 00:02:40;;;;;;;3.00;1.52;;;-0.30;99.90;;;;;;5021503;28;20430;-66
2023/01/30 00:05:07;;;;;;;2.20;1.52;;;-0.20;99.90;;;;;;5016990;28;20434;-66
2023/01/30 00:07:33;;;;;;;1.27;1.17;;;-0.20;99.90;;;;;;5019905;28;20437;-66
2023/01/30 00:10:00;;;;;;;1.77;1.13;;;-0.20;99.90;;;;;;5021624;28;20446;-66
2023/01/30 00:12:51;;;;;;;4.97;1.60;;;-0.20;99.90;;;;;;5020334;28;20418;-66
2023/01/30 00:15:18;;;;;;;0.97;0.93;;;-0.20;99.90;;;;;;5019030;28;20429;-66
2023/01/30 00:17:44;;;;;;;1.70;0.93;;;-0.20;99.90;;;;;;5019553;28;20435;-66
2023/01/30 00:20:11;;;;;;;4.10;1.50;;;-0.10;99.90;;;;;;5021231;28;20457;-66
2023/01/30 00:23:03;;;;;;;1.52;1.38;;;-0.10;99.90;;;;;;5041820;28;20468;-66
2023/01/30 00:25:36;;;;;;;1.40;1.27;;;0.00;99.90;;;;;;5020312;28;20427;-67
2023/01/30 00:28:27;;;;;;;4.28;1.15;;;0.00;99.90;;;;;;5016922;28;20418;-66
2023/01/30 00:30:55;;;;;;;4.60;0.95;;;0.10;99.90;;;;;;5019789;28;20486;-67
2023/01/30 00:33:46;;;;;;;0.80;0.80;;;0.10;99.90;;;;;;5012412;28;21228;-66
2023/01/30 00:36:16;;;;;;;1.00;1.00;;;0.20;99.90;;;;;;5021829;28;20431;-66
2023/01/30 00:38:45;;;;;;;1.87;1.20;;;0.30;97.80;;;;;;5038111;28;20607;-66
2023/01/30 00:41:14;;;;;;;1.33;1.25;;;0.30;77.00;;;;;;5017426;28;20526;-66
2023/01/30 00:47:07;;;;;;;0.93;0.93;;;0.20;32.90;;;;;;5017894;28;20435;-66
2023/01/30 00:49:37;;;;;;;2.03;0.75;;;0.00;38.70;;;;;;5016862;28;20441;-65
2023/01/30 00:52:04;;;;;;;1.60;1.05;;;-0.10;51.10;;;;;;5020319;28;20433;-65
2023/01/30 00:54:31;;;;;;;2.65;0.90;;;-0.20;77.90;;;;;;5019993;28;20438;-66
2023/01/30 00:57:22;;;;;;;1.90;1.30;;;-0.20;95.70;;;;;;5018504;28;20521;-65
2023/01/30 01:00:16;;;;;;;1.80;1.25;;;-0.10;99.90;;;;;;5018423;28;21027;-65
2023/01/30 01:03:06;;;;;;;4.00;1.83;;;0.00;99.90;;;;;;5018158;28;21422;-65
2023/01/30 01:05:36;;;;;;;2.13;1.13;;;0.00;99.90;;;;;;5018768;28;20466;-65
2023/01/30 01:08:27;;;;;;;1.80;0.60;;;0.10;99.90;;;;;;5016161;28;20414;-65
2023/01/30 01:10:59;;;;;;;2.47;1.38;;;0.20;99.90;;;;;;5018648;28;20880;-66
2023/01/30 01:13:26;;;;;;;1.10;1.08;;;0.20;95.40;;;;;;5004868;28;20444;-65
2023/01/30 01:15:53;;;;;;;0.77;0.77;;;0.20;82.40;;;;;;5016438;28;20860;-66
2023/01/30 01:18:44;;;;;;;0.90;0.90;;;0.20;82.00;;;;;;5041125;28;20433;-65
2023/01/30 01:21:10;;;;;;;2.97;0.70;;;0.30;83.00;;;;;;5015338;28;20465;-66
2023/01/30 01:23:37;;;;;;;0.73;0.73;;;0.30;83.40;;;;;;5016561;28;20423;-66
2023/01/30 01:26:07;;;;;;;1.77;1.42;;;0.30;87.10;;;;;;5018708;28;20431;-65
2023/01/30 01:28:34;;;;;;;3.05;2.10;;;0.30;82.60;;;;;;5017229;28;20869;-66
2023/01/30 01:31:09;;;;;;;2.40;1.20;;;0.40;78.70;;;;;;5016478;28;20517;-65
2023/01/30 01:33:37;;;;;;;1.70;1.10;;;0.40;76.80;;;;;;5015736;28;20947;-66
2023/01/30 01:36:04;;;;;;;1.30;1.27;;;0.30;70.90;;;;;;5017110;28;20426;-66
2023/01/30 01:38:31;;;;;;;2.65;1.17;;;0.40;64.10;;;;;;5016853;28;20493;-65
2023/01/30 01:41:00;;;;;;;1.00;0.80;;;0.40;61.90;;;;;;5017435;28;20434;-65
2023/01/30 01:44:07;;;;;;;2.35;1.20;;;0.40;61.10;;;;;;5048784;28;20439;-66
2023/01/30 01:46:43;;;;;;;0.90;0.90;;;0.40;59.10;;;;;;5015320;28;20441;-65
2023/01/30 01:49:19;;;;;;;1.40;1.30;;;0.50;62.20;;;;;;5017931;28;20439;-66
2023/01/30 01:51:49;;;;;;;0.93;0.93;;;0.40;63.20;;;;;;5014445;28;20435;-65
2023/01/30 01:54:29;;;;;;;1.20;1.10;;;0.40;67.50;;;;;;5016986;28;20430;-65
2023/01/30 01:56:55;;;;;;;1.50;0.80;;;0.40;66.80;;;;;;5015342;28;20435;-66
2023/01/30 01:59:30;;;;;;;2.50;0.75;;;0.50;64.00;;;;;;5017647;28;20437;-65
2023/01/30 02:02:02;;;;;;;2.83;1.35;;;0.50;60.20;;;;;;5013641;28;20435;-65
2023/01/30 02:07:18;;;;;;;2.72;1.90;;;0.40;68.60;;;;;;5017496;28;20426;-65
2023/01/30 02:09:45;;;;;;;0.93;0.83;;;0.50;75.60;;;;;;5049033;28;20443;-65
2023/01/30 02:12:14;;;;;;;1.40;1.30;;;0.40;79.50;;;;;;5017591;28;20439;-65
2023/01/30 02:14:42;;;;;;;2.40;0.80;;;0.40;83.90;;;;;;5016987;28;20431;-66
2023/01/30 02:17:09;;;;;;;1.23;1.13;;;0.50;85.20;;;;;;5014886;28;20522;-67
2023/01/30 02:20:06;;;;;;;4.78;0.68;;;0.50;85.90;;;;;;5015865;28;20474;-66
2023/01/30 02:22:52;;;;;;;4.90;1.80;;;0.50;86.80;;;;;;5016827;28;20475;-66
2023/01/30 02:25:42;;;;;;;0.93;0.93;;;0.50;92.90;;;;;;5015159;28;20437;-66
2023/01/30 02:28:59;;;;;;;1.90;1.00;;;0.50;99.90;;;;;;5014262;28;20526;-66
2023/01/30 02:31:31;;;;;;;0.93;0.93;;;0.40;99.90;;;;;;5016119;28;20438;-66
2023/01/30 02:34:15;;;;;;;2.60;1.45;;;0.30;99.90;;;;;;5016323;28;20431;-66
2023/01/30 02:37:18;;;;;;;3.47;0.83;;;0.30;99.90;;;;;;5015914;28;21291;-66
2023/01/30 02:40:24;;;;;;;1.40;0.60;;;0.30;99.90;;;;;;4992662;28;20436;-67
2023/01/30 02:43:26;;;;;;;1.25;1.15;;;0.30;99.90;;;;;;5018144;28;21223;-66
2023/01/30 02:46:05;;;;;;;2.33;1.42;;;0.30;99.90;;;;;;5018448;28;21038;-67
2023/01/30 02:49:00;;;;;;;0.47;0.47;;;0.30;99.90;;;;;;5014586;28;21072;-67
2023/01/30 02:51:34;;;;;;;1.02;0.90;;;0.30;99.90;;;;;;5016919;28;20443;-66
2023/01/30 02:54:02;;;;;;;2.10;1.00;;;0.30;99.90;;;;;;5014650;28;20438;-67
2023/01/30 02:56:28;;;;;;;0.95;0.80;;;0.30;99.90;;;;;;5016369;28;20434;-73
2023/01/30 02:59:01;;;;;;;0.97;0.93;;;0.30;99.90;;;;;;5018908;28;20449;-66
2023/01/30 03:01:58;;;;;;;0.60;0.60;;;0.30;99.90;;;;;;5016829;28;20435;-67
2023/01/30 03:04:36;;;;;;;2.93;0.93;;;0.30;99.90;;;;;;5017039;28;20509;-66
2023/01/30 03:07:25;;;;;;;1.63;0.80;;;0.30;99.90;;;;;;5012750;28;20438;-66
2023/01/30 03:10:06;;;;;;;2.22;0.88;;;0.30;99.90;;;;;;5032182;28;20810;-66
2023/01/30 03:12:48;;;;;;;1.02;0.93;;;0.40;99.90;;;;;;5015216;28;20427;-66
2023/01/30 03:15:46;;;;;;;1.15;0.80;;;0.40;99.90;;;;;;5016385;28;20497;-67
2023/01/30 03:18:17;;;;;;;1.17;1.17;;;0.40;99.90;;;;;;5015467;28;20984;-66
2023/01/30 03:20:44;;;;;;;1.23;0.97;;;0.40;99.90;;;;;;5020204;28;20419;-67
2023/01/30 03:23:11;;;;;;;2.90;1.30;;;0.40;99.90;;;;;;5015132;28;20446;-66
2023/01/30 03:25:42;;;;;;;1.30;0.60;;;0.40;99.90;;;;;;5021810;28;20511;-66
2023/01/30 03:28:11;;;;;;;0.70;0.70;;;0.40;99.90;;;;;;5018070;28;20550;-66
2023/01/30 03:30:38;;;;;;;0.70;0.70;;;0.40;99.90;;;;;;5021753;28;20945;-67
2023/01/30 03:33:05;;;;;;;1.20;1.20;;;0.40;99.90;;;;;;5020977;28;20442;-66
2023/01/30 03:35:32;;;;;;;1.17;1.10;;;0.40;99.90;;;;;;5018986;28;20433;-66
2023/01/30 03:37:59;;;;;;;1.20;1.00;;;0.40;99.90;;;;;;5018579;28;20936;-66
2023/01/30 03:40:26;;;;;;;1.27;1.20;;;0.40;99.90;;;;;;5018742;28;20799;-66
2023/01/30 03:42:53;;;;;;;1.10;1.10;;;0.40;99.90;;;;;;5016315;28;20925;-66
2023/01/30 03:45:22;;;;;;;2.53;2.33;;;0.30;99.90;;;;;;5018776;28;20438;-66
2023/01/30 03:47:49;;;;;;;1.73;1.27;;;0.30;99.90;;;;;;5017788;28;20435;-66
2023/01/30 03:50:15;;;;;;;3.80;1.60;;;0.30;99.90;;;;;;5017368;28;20453;-66
2023/01/30 03:52:42;;;;;;;2.50;1.98;;;0.30;99.90;;;;;;5018817;28;20431;-66
2023/01/30 03:55:10;;;;;;;3.95;1.50;;;0.30;99.90;;;;;;5017727;28;20481;-66
2023/01/30 03:57:37;;;;;;;1.63;1.42;;;0.30;99.90;;;;;;5016992;28;20439;-66
2023/01/30 04:00:04;;;;;;;1.13;1.02;;;0.30;99.90;;;;;;5017052;28;20441;-66
2023/01/30 04:02:31;;;;;;;4.35;1.45;;;0.30;99.90;;;;;;5020398;28;20429;-66
2023/01/30 04:04:58;;;;;;;2.00;1.70;;;0.30;99.90;;;;;;5016385;28;20525;-66
2023/01/30 04:07:27;;;;;;;3.75;1.10;;;0.30;99.90;;;;;;5016912;28;20442;-67
2023/01/30 04:09:54;;;;;;;5.20;1.75;;;0.30;99.90;;;;;;5019422;28;20431;-66
2023/01/30 04:12:21;;;;;;;1.80;1.70;;;0.30;99.90;;;;;;5019827;28;20430;-66
2023/01/30 04:14:47;;;;;;;1.60;1.30;;;0.30;99.90;;;;;;5017239;28;20438;-67
2023/01/30 04:17:17;;;;;;;3.40;1.50;;;0.20;99.90;;;;;;5018753;28;20440;-67
2023/01/30 04:19:44;;;;;;;3.17;1.88;;;0.20;99.90;;;;;;5016015;28;20438;-67
2023/01/30 04:22:13;;;;;;;1.83;1.60;;;0.20;99.90;;;;;;5014999;28;20695;-66
2023/01/30 04:24:40;;;;;;;3.15;1.90;;;0.20;99.90;;;;;;5018473;28;20446;-66
2023/01/30 04:27:08;;;;;;;2.00;1.83;;;0.20;99.90;;;;;;5018308;28;20522;-66
2023/01/30 04:29:34;;;;;;;1.70;1.07;;;0.30;99.90;;;;;;5017792;28;20795;-66
2023/01/30 04:32:01;;;;;;;1.27;1.17;;;0.30;99.90;;;;;;5018520;28;20912;-66
2023/01/30 04:34:28;;;;;;;2.45;1.70;;;0.30;99.90;;;;;;5018492;28;21159;-67
2023/01/30 04:36:55;;;;;;;2.08;1.50;;;0.20;99.90;;;;;;5019565;28;20436;-66
2023/01/30 04:39:21;;;;;;;1.45;1.38;;;0.20;99.90;;;;;;5017423;28;20501;-66
2023/01/30 04:41:48;;;;;;;1.55;1.45;;;0.30;99.90;;;;;;5019000;28;21051;-66
2023/01/30 04:44:15;;;;;;;1.42;1.13;;;0.20;99.90;;;;;;5017544;28;20469;-67
2023/01/30 04:46:41;;;;;;;3.53;2.33;;;0.20;99.90;;;;;;5018742;28;20457;-66
2023/01/30 04:49:09;;;;;;;2.88;1.50;;;0.20;99.90;;;;;;5016123;28;21291;-66
2023/01/30 04:51:36;;;;;;;5.45;2.35;;;0.20;99.90;;;;;;5012080;28;20442;-66
2023/01/30 04:54:05;;;;;;;3.78;1.92;;;0.20;99.90;;;;;;5013901;28;20430;-67
2023/01/30 04:56:32;;;;;;;4.38;1.17;;;0.20;99.90;;;;;;5018872;28;20431;-66
2023/01/30 04:58:59;;;;;;;2.40;1.90;;;0.20;99.90;;;;;;5016517;28;20427;-66
2023/01/30 05:01:37;;;;;;;3.95;1.75;;;0.20;99.90;;;;;;5015614;28;21330;-66
2023/01/30 05:04:05;;;;;;;1.52;0.95;;;0.20;99.90;;;;;;5011346;28;20440;-66
2023/01/30 05:06:34;;;;;;;3.67;1.95;;;0.20;99.90;;;;;;5016106;28;20471;-66
2023/01/30 05:09:00;;;;;;;1.85;1.17;;;0.20;99.90;;;;;;5016430;28;20928;-66
2023/01/30 05:11:28;;;;;;;2.03;1.60;;;0.20;99.90;;;;;;5015110;28;20525;-66
2023/01/30 05:13:55;;;;;;;2.17;1.98;;;0.20;99.90;;;;;;5017627;28;20430;-66
2023/01/30 05:16:25;;;;;;;2.42;1.60;;;0.20;99.90;;;;;;5014959;28;20815;-66
2023/01/30 05:18:52;;;;;;;1.55;1.27;;;0.20;99.90;;;;;;5016793;28;20438;-66
2023/01/30 05:21:24;;;;;;;4.38;2.30;;;0.30;1.00;;;;;;5015076;28;20437;-66
2023/01/30 05:23:52;;;;;;;1.42;1.33;;;0.30;1.00;;;;;;5013792;28;20927;-66
2023/01/30 05:26:19;;;;;;;2.78;1.27;;;0.40;1.00;;;;;;5014993;28;20510;-67
2023/01/30 05:28:51;;;;;;;3.10;1.95;;;0.40;99.90;;;;;;5016600;28;20465;-67
2023/01/30 05:31:18;;;;;;;3.25;2.00;;;0.40;99.90;;;;;;5017959;28;20431;-66
2023/01/30 05:33:47;;;;;;;2.80;1.02;;;0.40;99.90;;;;;;5016744;28;20458;-66
2023/01/30 05:36:17;;;;;;;1.67;1.30;;;0.40;99.90;;;;;;5012552;28;20430;-66
2023/01/30 05:38:44;;;;;;;2.95;1.90;;;0.40;99.90;;;;;;5016463;28;20929;-66
2023/01/30 05:41:13;;;;;;;1.73;1.02;;;0.40;99.90;;;;;;5016849;28;20442;-66
2023/01/30 05:43:40;;;;;;;6.70;2.00;;;0.40;99.90;;;;;;5017464;28;20447;-66
2023/01/30 05:46:10;;;;;;;0.77;0.77;;;0.40;99.90;;;;;;5017146;28;21776;-66
2023/01/30 05:48:36;;;;;;;3.10;1.23;;;0.40;99.90;;;;;;5016127;28;20930;-66
2023/01/30 05:51:05;;;;;;;3.00;1.40;;;0.40;99.90;;;;;;5018062;28;20431;-67
2023/01/30 05:53:33;;;;;;;0.85;0.85;;;0.40;99.90;;;;;;5016324;28;20461;-66
2023/01/30 05:56:03;;;;;;;1.33;1.27;;;0.40;99.90;;;;;;5015011;28;20547;-66
2023/01/30 05:58:31;;;;;;;1.50;1.25;;;0.50;99.90;;;;;;5017859;28;20818;-66
2023/01/30 06:01:08;;;;;;;1.50;1.00;;;0.60;99.90;;;;;;5013691;28;20443;-66
2023/01/30 06:03:35;;;;;;;1.83;1.23;;;0.70;99.90;;;;;;5015317;28;20450;-66
2023/01/30 06:06:03;;;;;;;1.98;1.63;;;0.80;99.90;;;;;;5017984;28;20444;-67
2023/01/30 06:08:31;;;;;;;1.55;0.75;;;0.80;99.90;;;;;;5016543;28;20443;-66
2023/01/30 06:11:07;;;;;;;3.42;1.25;;;0.90;99.90;;;;;;5016342;28;20439;-65
2023/01/30 06:13:37;;;;;;;2.25;1.50;;;0.90;99.90;;;;;;5017349;28;20548;-66
2023/01/30 06:16:06;;;;;;;1.88;1.00;;;0.90;99.90;;;;;;5015510;28;20431;-65
2023/01/30 06:18:33;;;;;;;7.20;1.60;;;0.90;99.90;;;;;;5015932;28;21558;-67
2023/01/30 06:21:00;;;;;;;0.63;0.63;;;0.90;99.90;;;;;;5014465;28;20438;-66
2023/01/30 06:23:27;;;;;;;0.82;0.73;;;0.80;99.90;;;;;;5015155;28;20488;-65
2023/01/30 06:25:54;;;;;;;1.17;1.10;;;0.80;99.90;;;;;;5015648;28;20437;-66
2023/01/30 06:28:25;;;;;;;1.25;1.20;;;0.80;99.90;;;;;;5006856;28;20525;-65
2023/01/30 06:30:52;;;;;;;1.30;0.50;;;0.70;99.90;;;;;;5011482;28;20967;-66
2023/01/30 06:33:19;;;;;;;0.63;0.60;;;0.70;99.90;;;;;;5012479;28;20445;-65
2023/01/30 06:35:50;;;;;;;1.05;1.05;;;0.60;99.90;;;;;;5013086;28;20426;-65
2023/01/30 06:38:19;;;;;;;0.70;0.70;;;0.60;99.90;;;;;;5012573;28;20474;-66
2023/01/30 06:40:47;;;;;;;3.80;1.30;;;0.60;99.90;;;;;;5010038;28;20443;-66
2023/01/30 06:43:16;;;;;;;1.10;0.95;;;0.60;99.90;;;;;;5007298;28;20437;-66
2023/01/30 06:45:43;;;;;;;1.70;1.00;;;0.60;99.90;;;;;;5008311;28;20431;-65
2023/01/30 06:48:12;;;;;;;1.30;1.00;;;0.60;99.90;;;;;;5012564;28;20441;-67
2023/01/30 06:50:38;;;;;;;1.58;1.23;;;0.60;99.90;;;;;;5008837;28;20557;-66
2023/01/30 06:53:06;;;;;;;2.03;0.90;;;0.60;99.90;;;;;;5008841;28;20812;-66
2023/01/30 06:55:34;;;;;;;1.40;1.30;;;0.60;99.90;;;;;;5012662;28;20448;-66
2023/01/30 06:58:12;;;;;;;1.20;0.95;;;0.60;99.90;;;;;;5015669;28;20516;-66
2023/01/30 07:00:41;;;;;;;4.13;1.83;;;0.70;99.90;;;;;;5014961;28;20431;-66
2023/01/30 07:03:13;;;;;;;1.23;0.93;;;0.70;99.90;;;;;;5013335;28;20501;-66
2023/01/30 07:05:41;;;;;;;0.75;0.75;;;0.70;99.90;;;;;;5012995;28;20478;-66
2023/01/30 07:08:10;;;;;;;0.90;0.88;;;0.70;99.90;;;;;;5013466;28;20472;-67
2023/01/30 07:10:39;;;;;;;1.02;0.82;;;0.70;99.90;;;;;;5014944;28;20442;-66
2023/01/30 07:13:05;;;;;;;0.77;0.50;;;0.80;99.90;;;;;;5016607;28;20515;-66
2023/01/30 07:15:32;;;;;;;2.15;0.80;;;0.80;99.90;;;;;;5018796;28;21350;-66
2023/01/30 07:18:02;;;;;;;1.80;0.80;;;0.80;99.90;;;;;;5017542;28;21220;-66
2023/01/30 07:20:30;;;;;;;0.80;0.80;;;0.90;99.90;;;;;;5015863;28;20434;-67
2023/01/30 07:22:57;;;;;;;1.10;0.82;;;0.90;99.90;;;;;;5017412;28;20814;-66
2023/01/30 07:25:25;;;;;;;0.57;0.57;;;0.90;99.90;;;;;;5015941;28;20561;-66
2023/01/30 07:27:57;;;;;;;2.92;0.77;;;0.90;99.90;;;;;;5015233;28;20977;-66
2023/01/30 07:30:26;;;;;;;1.05;1.02;;;1.00;99.90;;;;;;5015427;28;20450;-65
2023/01/30 07:32:56;;;;;;;1.65;1.58;;;1.00;99.90;;;;;;5017164;28;20435;-66
2023/01/30 07:35:25;;;;;;;0.68;0.68;;;1.10;99.90;;;;;;5018711;28;20427;-66
2023/01/30 07:37:52;;;;;;;0.90;0.90;;;1.20;99.90;;;;;;5014481;28;20439;-66
2023/01/30 07:40:20;;;;;;;0.90;0.87;;;1.30;99.90;;;;;;5014697;28;20434;-66
2023/01/30 07:43:07;;;;;;;1.90;1.52;;;1.40;99.90;;;;;;5014611;28;20481;-66
2023/01/30 07:45:45;;;;;;;1.65;1.48;;;1.50;99.90;;;;;;5005594;28;20449;-65
2023/01/30 07:48:14;;;;;;;1.60;1.50;;;1.50;99.90;;;;;;5010966;28;20439;-66
2023/01/30 07:50:42;;;;;;;3.10;1.17;;;1.50;99.90;;;;;;5014313;28;20434;-66
2023/01/30 07:53:12;;;;;;;0.80;0.80;;;1.50;99.90;;;;;;5015773;28;20435;-66
2023/01/30 07:55:39;;;;;;;2.30;1.30;;;1.50;99.90;;;;;;5015253;28;20489;-66
2023/01/30 07:58:06;;;;;;;1.17;0.80;;;1.50;99.90;;;;;;5018150;28;20426;-66
2023/01/30 08:00:34;;;;;;;3.35;1.02;;;1.50;99.90;;;;;;5019158;28;20441;-67
2023/01/30 08:03:00;;;;;;;1.00;0.60;;;1.50;99.90;;;;;;5018327;28;20446;-66
2023/01/30 08:05:27;;;;;;;1.20;1.00;;;1.50;99.90;;;;;;5015069;28;20437;-66
2023/01/30 08:07:55;;;;;;;1.83;1.50;;;1.50;99.90;;;;;;5017203;28;20447;-67
2023/01/30 08:10:22;;;;;;;2.10;1.35;;;1.50;99.90;;;;;;5014479;28;20435;-66
2023/01/30 08:12:50;;;;;;;2.85;1.55;;;1.60;99.90;;;;;;5020517;28;20439;-65
2023/01/30 08:15:17;;;;;;;0.85;0.85;;;1.60;99.90;;;;;;5015856;28;20919;-66
2023/01/30 08:17:55;;;;;;;1.23;0.68;;;1.60;99.90;;;;;;5014764;28;21101;-69
2023/01/30 08:20:23;;;;;;;4.40;0.82;;;1.70;99.90;;;;;;5015768;28;22938;-66
2023/01/30 08:22:51;;;;;;;0.95;0.90;;;1.70;99.90;;;;;;5014857;28;20435;-66
2023/01/30 08:25:21;;;;;;;0.73;0.73;;;1.70;99.90;;;;;;5014196;28;20471;-66
2023/01/30 08:27:50;;;;;;;1.10;1.02;;;1.70;99.90;;;;;;5017347;28;20434;-67
2023/01/30 08:30:19;;;;;;;0.55;0.55;;;1.80;99.90;;;;;;5015216;28;20439;-67
2023/01/30 08:32:46;;;;;;;0.45;0.45;;;1.80;99.90;;;;;;5017704;28;20439;-66
2023/01/30 08:35:15;;;;;;;1.58;0.90;;;1.80;99.90;;;;;;5016164;28;20431;-67
2023/01/30 08:37:42;;;;;;;0.80;0.80;;;1.80;99.90;;;;;;5016771;28;21407;-67
2023/01/30 08:40:09;;;;;;;0.68;0.68;;;1.90;99.90;;;;;;5014959;28;20431;-67
2023/01/30 08:42:36;;;;;;;1.20;0.77;;;1.90;99.90;;;;;;5016841;28;20443;-67
2023/01/30 08:45:06;;;;;;;0.70;0.70;;;1.90;99.90;;;;;;5016626;28;20481;-67
2023/01/30 08:47:34;;;;;;;2.67;1.23;;;1.90;99.90;;;;;;5015835;28;20943;-67
2023/01/30 08:50:01;;;;;;;2.10;1.10;;;2.00;99.90;;;;;;5014900;28;20426;-67
2023/01/30 08:52:28;;;;;;;0.80;0.80;;;2.00;99.90;;;;;;5018849;28;20457;-67
2023/01/30 08:54:56;;;;;;;0.80;0.40;;;2.10;99.90;;;;;;5018542;28;20429;-67
2023/01/30 08:57:23;;;;;;;1.20;0.47;;;2.20;99.90;;;;;;5014150;28;20430;-67
2023/01/30 08:59:51;;;;;;;0.95;0.95;;;2.20;99.90;;;;;;5015931;28;20431;-67
2023/01/30 09:02:18;;;;;;;0.60;0.60;;;2.30;99.90;;;;;;5017989;28;20466;-70
2023/01/30 09:04:45;;;;;;;0.65;0.50;;;2.30;99.90;;;;;;5013828;28;20436;-67
2023/01/30 09:07:11;;;;;;;1.60;0.60;;;2.30;99.90;;;;;;5017067;28;20439;-67
2023/01/30 09:09:38;;;;;;;0.38;0.30;;;2.40;99.90;;;;;;5015478;28;20472;-68
2023/01/30 09:12:05;;;;;;;0.90;0.50;;;2.40;99.90;;;;;;5017779;28;20438;-68
2023/01/30 09:14:31;;;;;;;0.30;0.30;;;2.40;99.90;;;;;;5013772;28;20985;-68
2023/01/30 09:16:58;;;;;;;0.57;0.57;;;2.30;99.90;;;;;;5014556;28;20801;-67
2023/01/30 09:19:27;;;;;;;1.10;0.70;;;2.30;99.90;;;;;;5015764;28;20456;-68
2023/01/30 09:21:55;;;;;;;0.80;0.70;;;2.30;99.90;;;;;;5019378;28;20521;-68
2023/01/30 09:24:26;;;;;;;0.50;0.50;;;2.40;99.90;;;;;;5015019;28;20520;-68
2023/01/30 09:26:56;;;;;;;0.38;0.38;;;2.40;99.90;;;;;;5016019;28;22823;-66
2023/01/30 09:29:23;;;;;;;0.38;0.38;;;2.60;99.90;;;;;;5016395;28;20430;-67
2023/01/30 09:31:52;;;;;;;0.63;0.63;;;2.70;99.90;;;;;;5014770;28;20557;-67
2023/01/30 09:34:19;;;;;;;0.70;0.60;;;2.90;99.90;;;;;;5016656;28;20436;-67
2023/01/30 09:36:46;;;;;;;1.30;0.55;;;2.90;99.90;;;;;;5016894;28;20427;-68
2023/01/30 09:39:12;;;;;;;0.45;0.40;;;2.90;99.90;;;;;;5008300;28;20429;-68
2023/01/30 09:41:52;;;;;;;0.45;0.45;;;3.00;99.90;;;;;;5016682;28;20488;-67
2023/01/30 09:44:35;;;;;;;0.30;0.30;;;3.10;99.90;;;;;;5013918;28;20446;-67
2023/01/30 09:47:27;;;;;;;0.50;0.50;;;3.20;80.70;;;;;;5016375;28;20444;-67
2023/01/30 09:50:05;;;;;;;0.47;0.43;;;3.30;54.20;;;;;;5012970;28;20435;-67
2023/01/30 09:52:56;;;;;;;0.30;0.30;;;3.30;25.80;;;;;;5013839;28;20544;-68
2023/01/30 09:55:40;;;;;;;0.43;0.43;;;3.40;16.10;;;;;;5023523;28;20488;-68
2023/01/30 09:58:16;;;;;;;0.20;0.20;;;3.60;1.00;;;;;;5012834;28;20431;-66
2023/01/30 10:04:22;;;;;;;0.20;0.20;;;3.70;1.00;;;;;;4986476;28;20416;-66
2023/01/30 10:06:59;;;;;;;0.40;0.40;;;3.80;1.00;;;;;;4974561;28;20444;-67
2023/01/30 10:09:34;;;;;;;0.40;0.40;;;4.00;1.00;;;;;;4984226;28;20442;-67
2023/01/30 10:12:22;;;;;;;0.35;0.35;;;4.10;1.00;;;;;;4989489;28;20525;-66
2023/01/30 10:15:20;;;;;;;0.30;0.30;;;4.00;1.00;;;;;;4987697;28;20436;-67
2023/01/30 10:18:03;;;;;;;0.20;0.20;;;4.00;1.00;;;;;;4985351;28;20448;-67
2023/01/30 10:20:51;;;;;;;1.20;0.40;;;4.00;1.00;;;;;;4986956;28;20439;-66
2023/01/30 10:23:51;;;;;;;0.20;0.20;;;3.90;1.00;;;;;;4971064;28;20433;-67
2023/01/30 10:26:21;;;;;;;0.28;0.28;;;4.00;1.00;;;;;;4988818;28;20429;-67
2023/01/30 10:28:55;;;;;;;0.43;0.20;;;4.00;1.00;;;;;;4972212;28;20448;-66
2023/01/30 10:31:59;;;;;;;0.32;0.32;;;4.30;1.00;;;;;;4987213;28;20795;-67
2023/01/30 10:34:49;;;;;;;0.30;0.30;;;4.70;1.00;;;;;;4985879;28;20433;-71
2023/01/30 10:37:16;;;;;;;0.45;0.45;;;4.80;1.00;;;;;;4987644;28;20552;-66
2023/01/30 10:40:02;;;;;;;0.60;0.50;;;4.90;1.00;;;;;;4977855;28;20438;-66
2023/01/30 10:42:42;;;;;;;0.40;0.40;;;5.40;1.00;;;;;;5012269;28;21534;-66
2023/01/30 10:45:29;;;;;;;0.50;0.50;;;6.20;1.00;;;;;;5010265;28;21422;-66
2023/01/30 10:48:09;;;;;;;0.30;0.20;;;6.90;1.00;;;;;;5014213;28;20446;-67
2023/01/30 10:51:02;;;;;;;0.40;0.40;;;7.20;1.00;;;;;;5014044;28;21108;-66
2023/01/30 10:53:43;;;;;;;0.40;0.40;;;7.10;1.00;;;;;;5014599;28;21171;-66
2023/01/30 10:56:10;;;;;;;0.30;0.30;;;6.40;1.00;;;;;;5011488;28;20453;-67
2023/01/30 10:58:46;;;;;;;0.30;0.30;;;6.00;1.00;;;;;;5014293;28;21033;-68
2023/01/30 11:01:29;;;;;;;0.30;0.30;;;5.90;1.00;;;;;;5041981;28;20429;-67
2023/01/30 11:04:02;;;;;;;0.30;0.30;;;5.50;1.00;;;;;;5029556;28;20850;-66
2023/01/30 11:06:31;;;;;;;0.40;0.40;;;5.30;1.00;;;;;;5025293;28;22113;-67
2023/01/30 11:08:57;;;;;;;0.30;0.30;;;5.10;1.00;;;;;;5031122;28;20433;-67
2023/01/30 11:11:35;;;;;;;0.47;0.47;;;5.00;1.00;;;;;;5021115;28;20435;-66
2023/01/30 11:14:06;;;;;;;0.30;0.30;;;5.30;1.00;;;;;;5038370;28;20984;-66
2023/01/30 11:16:45;;;;;;;0.50;0.50;;;5.80;1.00;;;;;;5020342;28;20445;-66
2023/01/30 11:19:13;;;;;;;0.30;0.30;;;6.00;1.00;;;;;;5025012;28;20517;-66
2023/01/30 11:21:59;;;;;;;0.32;0.32;;;5.90;1.00;;;;;;5024064;28;20440;-66
2023/01/30 11:24:50;;;;;;;0.30;0.30;;;6.00;1.00;;;;;;5009553;28;20486;-66
2023/01/30 11:27:40;;;;;;;0.30;0.30;;;6.20;1.00;;;;;;5020960;28;20428;-66
2023/01/30 11:30:18;;;;;;;0.30;0.30;;;6.40;1.00;;;;;;5016901;28;20817;-66
2023/01/30 11:32:47;;;;;;;0.30;0.30;;;6.20;1.00;;;;;;5010288;28;20846;-66
2023/01/30 11:35:22;;;;;;;0.30;0.30;;;5.90;1.00;;;;;;5009658;28;20450;-67
2023/01/30 11:37:52;;;;;;;0.30;0.30;;;5.60;1.00;;;;;;5030944;28;20943;-66
2023/01/30 11:40:30;;;;;;;0.30;0.30;;;5.40;1.00;;;;;;5019458;28;20435;-66
2023/01/30 11:43:09;;;;;;;0.40;0.40;;;5.20;1.00;;;;;;5023139;28;20431;-66
2023/01/30 11:45:39;;;;;;;0.30;0.30;;;5.20;1.00;;;;;;5028808;28;20435;-66
2023/01/30 11:48:18;;;;;;;0.28;0.28;;;5.20;1.00;;;;;;5032947;28;20967;-66
2023/01/30 11:51:09;;;;;;;0.20;0.20;;;5.10;1.00;;;;;;5023661;28;20421;-66
2023/01/30 11:53:53;;;;;;;0.40;0.40;;;5.20;1.00;;;;;;5042062;28;20437;-66
2023/01/30 11:56:35;;;;;;;0.25;0.25;;;5.40;1.00;;;;;;5043568;28;20974;-66
2023/01/30 11:59:23;;;;;;;0.32;0.32;;;5.50;1.00;;;;;;5034710;28;20433;-66
2023/01/30 12:02:19;;;;;;;0.30;0.30;;;5.80;1.00;;;;;;5028306;28;20432;-66
2023/01/30 12:04:52;;;;;;;0.30;0.20;;;6.20;1.00;;;;;;5025953;28;20461;-67
2023/01/30 12:07:20;;;;;;;0.30;0.30;;;6.80;1.00;;;;;;5040571;28;20490;-66
2023/01/30 12:09:49;;;;;;;0.43;0.43;;;7.30;1.00;;;;;;5027055;28;20442;-66
2023/01/30 12:12:33;;;;;;;0.60;0.35;;;7.40;1.00;;;;;;5018419;28;20477;-67
2023/01/30 12:15:33;;;;;;;1.05;0.45;;;7.00;1.00;;;;;;5020482;28;20440;-66
2023/01/30 12:18:19;;;;;;;0.30;0.30;;;6.70;1.00;;;;;;5021730;28;20434;-68
2023/01/30 12:20:57;;;;;;;0.28;0.28;;;6.50;1.00;;;;;;5014305;28;20432;-68
2023/01/30 12:23:37;;;;;;;0.50;0.50;;;6.50;1.00;;;;;;5024024;28;20427;-66
2023/01/30 12:26:19;;;;;;;0.35;0.35;;;6.60;1.00;;;;;;5027657;28;20847;-68
2023/01/30 12:28:59;;;;;;;0.70;0.70;;;6.80;1.00;;;;;;5013603;28;20544;-66
2023/01/30 12:31:47;;;;;;;0.50;0.50;;;6.90;1.00;;;;;;5020528;28;20442;-66
2023/01/30 12:34:14;;;;;;;0.20;0.20;;;6.70;1.00;;;;;;5015879;28;20451;-66
2023/01/30 12:37:11;;;;;;;0.40;0.40;;;6.30;1.00;;;;;;5017127;28;20451;-68
2023/01/30 12:39:41;;;;;;;0.50;0.50;;;6.00;1.00;;;;;;5016197;28;20438;-67
2023/01/30 12:42:31;;;;;;;0.30;0.30;;;5.90;1.00;;;;;;5014127;28;20450;-66
2023/01/30 12:45:18;;;;;;;0.45;0.45;;;5.60;1.00;;;;;;5032660;28;20602;-66
2023/01/30 12:48:42;;;;;;;0.20;0.20;;;5.70;1.00;;;;;;5014245;28;20443;-66
2023/01/30 12:51:50;;;;;;;0.33;0.33;;;5.60;1.00;;;;;;4980170;28;20578;-68
2023/01/30 12:54:34;;;;;;;0.40;0.40;;;5.60;1.00;;;;;;4994757;28;20425;-67
2023/01/30 12:57:26;;;;;;;0.25;0.25;;;5.50;1.00;;;;;;4995708;28;20540;-67
2023/01/30 13:00:08;;;;;;;0.25;0.25;;;5.60;1.00;;;;;;4991665;28;20464;-68
2023/01/30 13:02:58;;;;;;;0.20;0.20;;;5.50;1.00;;;;;;4992656;28;20518;-67
2023/01/30 13:05:46;;;;;;;0.20;0.20;;;5.50;1.00;;;;;;4993576;28;20898;-66
2023/01/30 13:08:32;;;;;;;0.30;0.30;;;5.60;1.00;;;;;;4980425;28;20440;-66
2023/01/30 13:11:14;;;;;;;0.20;0.20;;;5.80;1.00;;;;;;4994659;28;20957;-66
2023/01/30 13:14:03;;;;;;;0.20;0.20;;;6.00;1.00;;;;;;4994108;28;20464;-67
2023/01/30 13:16:48;;;;;;;0.30;0.30;;;6.30;1.00;;;;;;4993457;28;20470;-67
2023/01/30 13:19:19;;;;;;;0.30;0.30;;;6.40;1.00;;;;;;4989453;28;20429;-67
2023/01/30 13:21:58;;;;;;;0.20;0.20;;;6.60;1.00;;;;;;5002939;28;20430;-66
2023/01/30 13:24:57;;;;;;;0.50;0.50;;;6.70;1.00;;;;;;5014329;28;20447;-65
2023/01/30 13:27:34;;;;;;;0.40;0.40;;;6.70;1.00;;;;;;5017722;28;20442;-67
2023/01/30 13:30:03;;;;;;;0.20;0.20;;;6.70;1.00;;;;;;5014768;28;20462;-66
2023/01/30 13:32:37;;;;;;;0.30;0.30;;;6.70;1.00;;;;;;5015857;28;20434;-66
2023/01/30 13:35:14;;;;;;;0.20;0.20;;;6.70;1.00;;;;;;5016527;28;20885;-65
2023/01/30 13:37:43;;;;;;;1.17;0.52;;;6.60;1.00;;;;;;5013757;28;20437;-66
2023/01/30 13:40:24;;;;;;;0.20;0.20;;;6.50;1.00;;;;;;5007953;28;20638;-65
2023/01/30 13:42:55;;;;;;;0.20;0.20;;;6.40;1.00;;;;;;5015031;28;20435;-66
2023/01/30 13:45:26;;;;;;;0.30;0.30;;;6.10;1.00;;;;;;5015618;28;20443;-66